Time;durP1;ratioP1;P1;durP2;ratioP2;P2;SDS_P1;SDS_P2;PMS_P1;PMS_P2;Temp;Humidity;BMP_temperature;BMP_pressure;BME280_temperature;BME280_humidity;BME280_pressure;Samples;Min_cycle;Max_cycle;Signal;HPM_P1;HPM_P2
2022/04/08 00:02:04;;;;;;;3.58;1.10;;;19.70;99.90;;;;;;5085905;28;20383;-87
2022/04/08 00:04:32;;;;;;;3.40;1.17;;;19.70;99.90;;;;;;5069332;28;20400;-84
2022/04/08 00:07:00;;;;;;;3.97;1.20;;;19.70;99.90;;;;;;5088607;28;20394;-83
2022/04/08 00:09:27;;;;;;;3.28;0.93;;;19.70;99.90;;;;;;5091958;28;20386;-83
2022/04/08 00:11:55;;;;;;;2.92;1.05;;;19.70;99.90;;;;;;5052412;28;20870;-86
2022/04/08 00:14:22;;;;;;;2.95;1.00;;;19.60;99.90;;;;;;5067236;28;20454;-86
2022/04/08 00:16:49;;;;;;;3.38;1.00;;;19.60;99.90;;;;;;5053483;28;20415;-83
2022/04/08 00:19:16;;;;;;;3.65;1.08;;;19.70;99.90;;;;;;5051928;28;21016;-87
2022/04/08 00:21:43;;;;;;;3.92;1.05;;;19.80;99.90;;;;;;5067283;28;20401;-85
2022/04/08 00:24:10;;;;;;;3.42;0.90;;;19.90;99.90;;;;;;5075724;28;20388;-86
2022/04/08 00:26:37;;;;;;;2.92;0.88;;;20.00;99.90;;;;;;5074942;28;20394;-88
2022/04/08 00:29:04;;;;;;;3.70;1.10;;;20.00;99.90;;;;;;5051752;28;20395;-87
2022/04/08 00:31:31;;;;;;;4.28;1.15;;;20.10;99.90;;;;;;5052469;28;20383;-86
2022/04/08 00:33:58;;;;;;;3.33;1.00;;;20.10;99.90;;;;;;5089844;28;20376;-86
2022/04/08 00:36:25;;;;;;;4.30;1.20;;;20.10;99.90;;;;;;5066114;28;20383;-87
2022/04/08 00:38:52;;;;;;;3.97;1.30;;;20.20;99.90;;;;;;5060728;28;20868;-83
2022/04/08 00:41:19;;;;;;;4.63;1.20;;;20.10;99.90;;;;;;5058111;28;20452;-86
2022/04/08 00:43:45;;;;;;;3.55;1.02;;;20.10;99.90;;;;;;5043702;28;20416;-86
2022/04/08 00:46:12;;;;;;;4.80;1.13;;;20.20;99.90;;;;;;5059279;28;20756;-86
2022/04/08 00:48:39;;;;;;;4.13;1.20;;;20.30;99.90;;;;;;5072673;28;20377;-86
2022/04/08 00:51:08;;;;;;;5.20;1.30;;;20.40;99.90;;;;;;5071518;28;20370;-84
2022/04/08 00:53:39;;;;;;;5.50;1.35;;;20.50;99.90;;;;;;5070769;28;20402;-87
2022/04/08 00:56:07;;;;;;;5.18;1.20;;;20.50;99.90;;;;;;5070134;28;20377;-89
2022/04/08 00:58:37;;;;;;;4.90;1.30;;;20.40;99.90;;;;;;5053365;28;20394;-89
2022/04/08 01:01:04;;;;;;;6.15;1.27;;;20.40;99.90;;;;;;5080137;28;20372;-87
2022/04/08 01:03:31;;;;;;;5.75;1.42;;;20.40;99.90;;;;;;5071830;28;20374;-87
2022/04/08 01:05:58;;;;;;;4.18;1.50;;;20.50;99.90;;;;;;5073623;28;20370;-85
2022/04/08 01:08:26;;;;;;;5.43;1.52;;;20.80;99.90;;;;;;5060573;28;20469;-87
2022/04/08 01:10:54;;;;;;;4.10;1.40;;;21.00;99.90;;;;;;5061977;28;20493;-90
2022/04/08 01:13:22;;;;;;;4.95;1.30;;;21.20;99.90;;;;;;5083677;28;20382;-90
2022/04/08 01:15:49;;;;;;;5.57;1.35;;;21.40;99.90;;;;;;5070782;28;20455;-93
2022/04/08 01:18:16;;;;;;;4.20;1.40;;;21.40;99.90;;;;;;5035247;28;20388;-92
2022/04/08 01:20:43;;;;;;;5.40;1.58;;;21.50;99.90;;;;;;5034461;28;20376;-91
2022/04/08 01:23:11;;;;;;;5.85;1.50;;;21.40;99.90;;;;;;5033487;28;20494;-89
2022/04/08 01:25:38;;;;;;;6.53;1.85;;;21.30;99.90;;;;;;5051479;28;20392;-89
2022/04/08 01:28:05;;;;;;;7.53;1.80;;;21.10;99.90;;;;;;5033516;28;20786;-84
2022/04/08 01:30:35;;;;;;;5.57;1.60;;;20.90;99.90;;;;;;5063518;28;20512;-83
2022/04/08 01:33:02;;;;;;;4.95;1.65;;;20.80;99.90;;;;;;5069146;28;20382;-87
2022/04/08 01:35:29;;;;;;;5.15;1.63;;;20.60;99.90;;;;;;5058181;28;20414;-88
2022/04/08 01:37:56;;;;;;;7.05;1.60;;;20.40;99.90;;;;;;5047339;28;20456;-83
2022/04/08 01:40:23;;;;;;;7.35;2.65;;;20.30;99.90;;;;;;5064022;28;20929;-86
2022/04/08 01:42:50;;;;;;;7.15;1.80;;;20.20;99.90;;;;;;5052618;28;20474;-88
2022/04/08 01:45:17;;;;;;;6.28;1.63;;;20.10;99.90;;;;;;5069578;28;20391;-86
2022/04/08 01:47:46;;;;;;;5.43;1.35;;;20.10;99.90;;;;;;5069416;28;20426;-83
2022/04/08 01:50:18;;;;;;;5.73;1.60;;;20.20;99.90;;;;;;5070043;28;20874;-87
2022/04/08 01:52:46;;;;;;;4.03;1.13;;;20.40;99.90;;;;;;5051358;28;20920;-87
2022/04/08 01:55:13;;;;;;;4.53;1.20;;;20.40;99.90;;;;;;5067146;28;20390;-88
2022/04/08 01:57:41;;;;;;;3.67;1.00;;;20.80;99.90;;;;;;5061856;28;20395;-85
2022/04/08 02:00:09;;;;;;;3.25;0.98;;;21.10;99.90;;;;;;5051362;28;20392;-85
2022/04/08 02:02:36;;;;;;;3.78;0.93;;;21.10;99.90;;;;;;5055426;28;20380;-84
2022/04/08 02:05:04;;;;;;;2.28;0.93;;;21.40;99.90;;;;;;5048176;28;20402;-88
2022/04/08 02:07:31;;;;;;;2.50;1.00;;;21.70;99.90;;;;;;5051117;28;20906;-89
2022/04/08 02:09:58;;;;;;;2.07;0.90;;;21.70;99.90;;;;;;5064579;28;20494;-83
2022/04/08 02:12:25;;;;;;;2.70;0.93;;;21.70;99.90;;;;;;5050992;28;20380;-85
2022/04/08 02:14:54;;;;;;;3.13;1.00;;;21.70;99.90;;;;;;5059222;28;20394;-89
2022/04/08 02:17:25;;;;;;;3.05;1.05;;;21.70;99.90;;;;;;5071029;28;20386;-88
2022/04/08 02:19:53;;;;;;;3.63;1.20;;;22.10;99.90;;;;;;5054244;28;20875;-88
2022/04/08 02:22:21;;;;;;;4.35;1.30;;;22.50;99.90;;;;;;5059570;28;20442;-83
2022/04/08 02:24:51;;;;;;;3.88;1.20;;;22.80;99.90;;;;;;5058668;28;20875;-86
2022/04/08 02:27:22;;;;;;;5.05;1.30;;;22.80;99.90;;;;;;5053012;28;20384;-87
2022/04/08 02:29:49;;;;;;;4.33;1.20;;;22.90;99.90;;;;;;5050139;28;20887;-85
2022/04/08 02:32:16;;;;;;;3.58;1.10;;;23.20;99.90;;;;;;5052327;28;20782;-88
2022/04/08 02:34:44;;;;;;;5.10;1.50;;;24.00;99.90;;;;;;5062870;28;20385;-86
2022/04/08 02:37:11;;;;;;;6.03;1.20;;;24.70;99.90;;;;;;5058250;28;20906;-83
2022/04/08 02:39:38;;;;;;;4.38;1.20;;;24.90;99.90;;;;;;5066137;28;20407;-94
2022/04/08 02:42:05;;;;;;;7.65;1.40;;;25.10;99.90;;;;;;5055158;28;20384;-90
2022/04/08 02:44:32;;;;;;;6.15;1.30;;;24.90;99.90;;;;;;5057982;28;20391;-90
2022/04/08 02:46:59;;;;;;;6.15;1.30;;;25.00;99.90;;;;;;5068824;28;20416;-90
2022/04/08 02:49:26;;;;;;;6.80;1.50;;;24.50;99.90;;;;;;5074248;28;20417;-89
2022/04/08 02:51:54;;;;;;;7.45;1.60;;;24.30;99.90;;;;;;5070074;28;20466;-84
2022/04/08 02:54:22;;;;;;;5.57;1.55;;;24.10;99.90;;;;;;5073615;28;20393;-89
2022/04/08 02:56:49;;;;;;;5.57;1.30;;;24.30;99.90;;;;;;5063414;28;20386;-85
2022/04/08 02:59:16;;;;;;;6.23;1.40;;;24.80;99.90;;;;;;5063397;28;20718;-86
2022/04/08 03:01:43;;;;;;;7.18;1.40;;;24.50;99.90;;;;;;5074211;28;20884;-92
2022/04/08 03:04:10;;;;;;;5.32;1.30;;;23.90;99.90;;;;;;5065697;28;20478;-89
2022/04/08 03:06:37;;;;;;;6.93;1.20;;;23.80;99.90;;;;;;5037877;28;20392;-89
2022/04/08 03:09:05;;;;;;;8.15;1.30;;;23.70;99.90;;;;;;5054778;28;20399;-90
2022/04/08 03:11:33;;;;;;;7.37;1.30;;;23.50;99.90;;;;;;5047039;28;20393;-89
2022/04/08 03:14:02;;;;;;;7.00;1.25;;;23.80;99.90;;;;;;5075280;28;20512;-92
2022/04/08 03:16:29;;;;;;;7.07;1.20;;;24.60;99.90;;;;;;5075830;28;20374;-95
2022/04/08 03:18:56;;;;;;;5.03;1.30;;;24.40;99.90;;;;;;5058271;28;20398;-91
2022/04/08 03:21:23;;;;;;;7.63;1.40;;;24.00;99.90;;;;;;5075425;28;20908;-94
2022/04/08 03:23:50;;;;;;;5.45;1.10;;;24.20;99.90;;;;;;5051211;28;20784;-93
2022/04/08 03:26:17;;;;;;;7.03;1.20;;;24.60;99.90;;;;;;5055516;28;20464;-90
2022/04/08 03:28:44;;;;;;;4.43;1.10;;;24.90;99.90;;;;;;5056923;28;20380;-85
2022/04/08 03:31:11;;;;;;;6.70;1.58;;;24.80;99.90;;;;;;5037351;28;20759;-93
2022/04/08 03:33:39;;;;;;;3.60;1.20;;;24.50;99.90;;;;;;5054952;28;20371;-89
2022/04/08 03:36:06;;;;;;;3.20;1.00;;;23.50;99.90;;;;;;5068603;28;20555;-82
2022/04/08 03:38:34;;;;;;;2.95;1.08;;;22.30;99.90;;;;;;5075555;28;20393;-82
2022/04/08 03:41:01;;;;;;;3.47;1.08;;;21.50;99.90;;;;;;5073813;28;20465;-83
2022/04/08 03:43:28;;;;;;;3.53;0.90;;;21.00;99.90;;;;;;5039613;28;20390;-86
2022/04/08 03:45:55;;;;;;;3.65;0.95;;;20.60;99.90;;;;;;5073416;28;20408;-84
2022/04/08 03:48:22;;;;;;;2.53;0.80;;;20.40;99.90;;;;;;5054913;28;20928;-88
2022/04/08 03:50:49;;;;;;;2.53;0.80;;;20.70;99.90;;;;;;5069251;28;20464;-89
2022/04/08 03:53:16;;;;;;;2.90;0.80;;;22.10;99.90;;;;;;5073755;28;20400;-88
2022/04/08 03:55:44;;;;;;;5.28;0.80;;;24.20;99.90;;;;;;5074323;28;20485;-94
2022/04/08 03:58:11;;;;;;;2.95;0.90;;;26.20;99.90;;;;;;5074970;28;20377;-84
2022/04/08 04:00:39;;;;;;;4.28;1.02;;;27.80;99.90;;;;;;5072434;28;20434;-92
2022/04/08 04:03:06;;;;;;;5.78;1.10;;;28.80;99.90;;;;;;5036334;28;20395;-94
2022/04/08 04:05:36;;;;;;;3.45;1.10;;;29.20;99.90;;;;;;5058727;28;20474;-90
2022/04/08 04:08:04;;;;;;;3.53;1.20;;;29.70;98.90;;;;;;5059329;28;20458;-87
2022/04/08 04:10:31;;;;;;;3.00;0.98;;;29.00;97.80;;;;;;5056829;28;20756;-88
2022/04/08 04:12:58;;;;;;;4.28;1.20;;;27.50;99.10;;;;;;5052490;28;20378;-86
2022/04/08 04:15:25;;;;;;;3.65;1.13;;;25.60;99.90;;;;;;5053312;28;20401;-84
2022/04/08 04:17:52;;;;;;;4.30;0.98;;;25.00;99.90;;;;;;5060312;28;20382;-85
2022/04/08 04:20:19;;;;;;;4.65;1.30;;;24.40;99.90;;;;;;5061807;28;20399;-87
2022/04/08 04:22:47;;;;;;;5.50;1.30;;;23.70;99.90;;;;;;5052114;28;20442;-83
2022/04/08 04:25:14;;;;;;;5.78;1.50;;;23.10;99.90;;;;;;5035110;28;20384;-87
2022/04/08 04:27:41;;;;;;;9.07;1.60;;;22.50;99.90;;;;;;5072519;28;20377;-89
2022/04/08 04:30:09;;;;;;;7.50;1.38;;;22.10;99.90;;;;;;5052553;28;20474;-88
2022/04/08 04:32:36;;;;;;;5.90;1.27;;;21.90;99.90;;;;;;5052701;28;20380;-88
2022/04/08 04:35:06;;;;;;;5.68;1.35;;;21.70;99.90;;;;;;5068265;28;20386;-88
2022/04/08 04:37:40;;;;;;;5.10;1.20;;;21.60;99.90;;;;;;5072288;28;20373;-88
2022/04/08 04:40:08;;;;;;;5.97;1.42;;;21.50;99.90;;;;;;5075175;28;20375;-88
2022/04/08 04:42:35;;;;;;;5.10;1.25;;;21.50;99.90;;;;;;5056255;28;20466;-89
2022/04/08 04:45:03;;;;;;;5.65;1.25;;;22.20;99.90;;;;;;5039412;28;20391;-90
2022/04/08 04:47:30;;;;;;;5.03;1.40;;;23.50;99.90;;;;;;5052784;28;20372;-87
2022/04/08 04:49:57;;;;;;;6.40;1.30;;;24.90;99.90;;;;;;5067546;28;20928;-88
2022/04/08 04:52:24;;;;;;;5.68;1.35;;;24.80;99.90;;;;;;5054924;28;20379;-82
2022/04/08 04:54:51;;;;;;;4.40;1.10;;;24.30;99.90;;;;;;5034937;28;20839;-90
2022/04/08 04:57:18;;;;;;;5.75;1.05;;;23.80;99.90;;;;;;5071943;28;20753;-86
2022/04/08 04:59:45;;;;;;;5.70;1.25;;;23.60;99.90;;;;;;5054454;28;20385;-88
2022/04/08 05:02:12;;;;;;;4.93;1.17;;;23.50;99.90;;;;;;5071856;28;20423;-92
2022/04/08 05:04:41;;;;;;;6.18;1.17;;;23.50;99.90;;;;;;5067827;28;20379;-89
2022/04/08 05:07:14;;;;;;;5.47;1.30;;;23.50;99.90;;;;;;5066592;28;20386;-85
2022/04/08 05:09:41;;;;;;;5.87;1.30;;;23.60;99.90;;;;;;5045590;28;20410;-90
2022/04/08 05:12:13;;;;;;;6.97;1.40;;;23.60;99.90;;;;;;5037305;28;20376;-93
2022/04/08 05:14:40;;;;;;;7.32;1.45;;;23.40;99.90;;;;;;5053202;28;20898;-91
2022/04/08 05:17:10;;;;;;;6.15;1.20;;;23.30;99.90;;;;;;5061993;28;20377;-88
2022/04/08 05:19:41;;;;;;;4.60;1.17;;;23.80;99.90;;;;;;5064855;28;20394;-89
2022/04/08 05:22:08;;;;;;;4.20;1.10;;;23.50;99.90;;;;;;5042318;28;20397;-92
2022/04/08 05:24:35;;;;;;;4.55;1.00;;;22.90;99.90;;;;;;5060783;28;20392;-90
2022/04/08 05:27:02;;;;;;;4.93;1.10;;;22.60;99.90;;;;;;5059900;28;20384;-94
2022/04/08 05:29:29;;;;;;;5.13;1.20;;;22.20;99.90;;;;;;5040582;28;20429;-89
2022/04/08 05:31:56;;;;;;;5.30;1.30;;;22.00;99.90;;;;;;5066657;28;20390;-85
2022/04/08 05:34:23;;;;;;;4.95;1.25;;;21.80;99.90;;;;;;5075331;28;20367;-88
2022/04/08 05:36:50;;;;;;;7.78;1.30;;;21.70;99.90;;;;;;5072489;28;20386;-87
2022/04/08 05:39:17;;;;;;;8.10;1.50;;;21.60;99.90;;;;;;5066991;28;20428;-88
2022/04/08 05:41:44;;;;;;;5.90;1.30;;;21.50;99.90;;;;;;5053535;28;20388;-83
2022/04/08 05:44:11;;;;;;;5.95;1.40;;;21.70;99.90;;;;;;5055184;28;20386;-84
2022/04/08 05:46:38;;;;;;;4.60;1.25;;;22.00;99.90;;;;;;5053428;28;20402;-85
2022/04/08 05:49:05;;;;;;;4.78;1.30;;;22.30;99.90;;;;;;5053929;28;20416;-81
2022/04/08 05:51:32;;;;;;;3.45;1.10;;;22.40;99.90;;;;;;5055397;28;20392;-82
2022/04/08 05:53:59;;;;;;;5.93;1.10;;;22.30;99.90;;;;;;5070956;28;20386;-92
2022/04/08 05:56:27;;;;;;;5.30;0.98;;;22.20;99.90;;;;;;5061153;28;20378;-88
2022/04/08 05:58:53;;;;;;;4.05;0.90;;;22.10;99.90;;;;;;5085921;28;20361;-84
2022/04/08 06:01:20;;;;;;;3.47;1.05;;;22.10;99.90;;;;;;5091659;28;20377;-84
2022/04/08 06:03:47;;;;;;;3.40;1.08;;;22.10;99.90;;;;;;5071649;28;20434;-85
2022/04/08 06:06:14;;;;;;;5.47;1.10;;;22.10;99.90;;;;;;5043498;28;20390;-91
2022/04/08 06:08:41;;;;;;;6.32;1.00;;;22.20;99.90;;;;;;5076413;28;20385;-91
2022/04/08 06:11:08;;;;;;;5.90;1.40;;;22.00;99.90;;;;;;5081371;28;20953;-83
2022/04/08 06:13:35;;;;;;;4.15;1.02;;;21.80;99.90;;;;;;5077595;28;20435;-90
2022/04/08 06:16:03;;;;;;;3.20;0.80;;;21.60;99.90;;;;;;5046014;28;20387;-88
2022/04/08 06:18:30;;;;;;;3.00;0.82;;;21.40;99.90;;;;;;5065125;28;20472;-90
2022/04/08 06:20:57;;;;;;;3.23;0.90;;;21.30;99.90;;;;;;5083664;28;20407;-85
2022/04/08 06:23:24;;;;;;;4.40;0.90;;;21.20;99.90;;;;;;5083486;28;20444;-87
2022/04/08 06:25:54;;;;;;;3.55;1.00;;;21.00;99.90;;;;;;5070649;28;20417;-89
2022/04/08 06:28:24;;;;;;;2.92;0.93;;;21.00;99.90;;;;;;5049734;28;20400;-88
2022/04/08 06:30:51;;;;;;;4.25;0.90;;;20.90;99.90;;;;;;5068297;28;20403;-89
2022/04/08 06:33:21;;;;;;;4.10;0.90;;;20.90;99.90;;;;;;5039983;28;20437;-88
2022/04/08 06:35:52;;;;;;;2.27;1.00;;;20.90;99.90;;;;;;5070247;28;20379;-86
2022/04/08 06:38:22;;;;;;;3.30;0.90;;;20.70;99.90;;;;;;5073399;28;20437;-90
2022/04/08 06:40:49;;;;;;;4.67;1.20;;;20.90;99.90;;;;;;5059675;28;20388;-90
2022/04/08 06:43:16;;;;;;;4.20;1.00;;;20.80;99.90;;;;;;5066811;28;20491;-92
2022/04/08 06:45:43;;;;;;;4.30;1.17;;;20.80;99.90;;;;;;5057357;28;20395;-84
2022/04/08 06:48:11;;;;;;;5.53;1.10;;;20.70;99.90;;;;;;5059841;28;20395;-88
2022/04/08 06:50:43;;;;;;;4.65;1.02;;;20.70;99.90;;;;;;5040852;28;20407;-86
2022/04/08 06:53:11;;;;;;;4.47;1.20;;;20.70;99.90;;;;;;5052667;28;20465;-89
2022/04/08 06:55:38;;;;;;;5.43;1.30;;;20.60;99.90;;;;;;5079366;28;20880;-85
2022/04/08 06:58:05;;;;;;;5.22;1.50;;;20.60;99.90;;;;;;5072120;28;20386;-86
2022/04/08 07:00:32;;;;;;;5.63;1.27;;;20.60;99.90;;;;;;5066043;28;20391;-86
2022/04/08 07:02:59;;;;;;;6.65;1.50;;;20.60;99.90;;;;;;5046077;28;20393;-83
2022/04/08 07:05:28;;;;;;;5.25;1.30;;;20.50;99.90;;;;;;5070696;28;20390;-91
2022/04/08 07:07:55;;;;;;;7.57;1.58;;;20.50;99.90;;;;;;5056752;28;20872;-84
2022/04/08 07:10:23;;;;;;;8.45;1.75;;;20.30;99.90;;;;;;5041371;28;20414;-92
2022/04/08 07:12:49;;;;;;;5.25;1.38;;;20.30;99.90;;;;;;5069988;28;20384;-87
2022/04/08 07:15:16;;;;;;;5.63;1.60;;;20.20;99.90;;;;;;5064776;28;20393;-86
2022/04/08 07:17:43;;;;;;;7.50;1.50;;;20.20;99.90;;;;;;5062349;28;20390;-89
2022/04/08 07:20:13;;;;;;;6.93;1.60;;;20.20;99.90;;;;;;5040493;28;20388;-90
2022/04/08 07:22:41;;;;;;;6.50;1.63;;;20.00;99.90;;;;;;5056912;28;20394;-86
2022/04/08 07:25:09;;;;;;;7.43;1.70;;;20.00;99.90;;;;;;5058223;28;20360;-89
2022/04/08 07:27:50;;;;;;;6.57;1.70;;;20.00;99.90;;;;;;5069729;28;20386;-83
2022/04/08 07:30:21;;;;;;;8.80;1.70;;;19.90;99.90;;;;;;5059954;28;20400;-82
2022/04/08 07:32:54;;;;;;;7.18;1.90;;;19.80;99.90;;;;;;5056593;28;20408;-82
2022/04/08 07:35:23;;;;;;;6.20;1.70;;;19.60;99.90;;;;;;5062550;28;20383;-84
2022/04/08 07:37:50;;;;;;;7.15;1.60;;;19.50;99.90;;;;;;5054894;28;20419;-87
2022/04/08 07:40:19;;;;;;;7.10;2.00;;;19.30;99.90;;;;;;5075669;28;20378;-87
2022/04/08 07:42:46;;;;;;;6.60;1.70;;;19.20;99.90;;;;;;5076331;28;20892;-90
2022/04/08 07:45:13;;;;;;;7.53;1.80;;;19.20;99.90;;;;;;5053664;28;20390;-90
2022/04/08 07:47:41;;;;;;;6.32;1.73;;;19.10;99.90;;;;;;5076581;28;20486;-83
2022/04/08 07:50:11;;;;;;;6.43;1.80;;;19.00;99.90;;;;;;5071890;28;20402;-89
2022/04/08 07:52:39;;;;;;;8.77;1.83;;;19.00;99.90;;;;;;5056237;28;20761;-85
2022/04/08 07:55:07;;;;;;;8.00;1.70;;;18.90;99.90;;;;;;5057773;28;20394;-87
2022/04/08 07:57:42;;;;;;;6.95;1.90;;;18.90;99.90;;;;;;5076732;28;20374;-91
2022/04/08 08:00:10;;;;;;;9.55;1.75;;;18.80;99.90;;;;;;5071185;28;20399;-85
2022/04/08 08:02:37;;;;;;;10.10;2.10;;;18.80;99.90;;;;;;5059278;28;20375;-81
2022/04/08 08:05:05;;;;;;;11.35;2.13;;;18.70;99.90;;;;;;5058898;28;20396;-84
2022/04/08 08:07:42;;;;;;;11.52;2.10;;;18.80;99.90;;;;;;5055160;28;20379;-87
2022/04/08 08:10:09;;;;;;;10.60;2.20;;;18.70;99.90;;;;;;5064238;28;20402;-81
2022/04/08 08:12:36;;;;;;;10.82;2.10;;;18.70;99.90;;;;;;5069267;28;20382;-85
2022/04/08 08:15:04;;;;;;;13.23;2.40;;;18.70;99.90;;;;;;5064668;28;20761;-90
2022/04/08 08:17:31;;;;;;;8.43;2.20;;;18.70;99.90;;;;;;5057937;28;20451;-89
2022/04/08 08:19:58;;;;;;;8.07;2.20;;;18.70;99.90;;;;;;5070618;28;21028;-90
2022/04/08 08:22:25;;;;;;;11.80;2.30;;;18.70;99.90;;;;;;5072152;28;20429;-92
2022/04/08 08:24:52;;;;;;;11.27;2.38;;;18.70;99.90;;;;;;5066378;28;20394;-87
2022/04/08 08:27:19;;;;;;;9.68;2.20;;;18.60;99.90;;;;;;5053660;28;20414;-89
2022/04/08 08:29:49;;;;;;;12.70;2.53;;;18.60;99.90;;;;;;5051872;28;20407;-89
2022/04/08 08:32:16;;;;;;;12.02;2.65;;;18.60;99.90;;;;;;5063637;28;20503;-89
2022/04/08 08:34:44;;;;;;;10.75;2.60;;;18.50;99.90;;;;;;5038312;28;20380;-90
2022/04/08 08:37:11;;;;;;;10.93;2.60;;;18.50;99.90;;;;;;5052820;28;20376;-89
2022/04/08 08:39:38;;;;;;;13.27;2.60;;;18.50;99.90;;;;;;5061057;28;20412;-86
2022/04/08 08:42:06;;;;;;;10.65;2.60;;;18.40;99.90;;;;;;5063611;28;20394;-91
2022/04/08 08:44:33;;;;;;;12.95;2.75;;;18.40;99.90;;;;;;5044114;28;20391;-90
2022/04/08 08:47:02;;;;;;;12.10;2.58;;;18.40;99.90;;;;;;5057938;28;20377;-89
2022/04/08 08:49:31;;;;;;;10.35;2.40;;;18.30;99.90;;;;;;5057241;28;20422;-91
2022/04/08 08:52:01;;;;;;;12.82;2.42;;;18.20;99.90;;;;;;5075504;28;20378;-88
2022/04/08 08:54:28;;;;;;;9.23;2.37;;;18.10;99.90;;;;;;5060576;28;20397;-90
2022/04/08 08:56:55;;;;;;;11.97;2.60;;;18.10;99.90;;;;;;5069278;28;20386;-91
2022/04/08 08:59:23;;;;;;;11.27;2.63;;;18.00;99.90;;;;;;5067125;28;20875;-91
2022/04/08 09:01:51;;;;;;;11.40;2.47;;;18.00;99.90;;;;;;5053047;28;20754;-90
2022/04/08 09:04:18;;;;;;;9.48;2.65;;;17.90;99.90;;;;;;5067128;28;20447;-91
2022/04/08 09:06:49;;;;;;;14.82;3.60;;;17.90;99.90;;;;;;5065773;28;20443;-85
2022/04/08 09:09:18;;;;;;;13.68;4.35;;;17.90;99.90;;;;;;5076745;28;20896;-93
2022/04/08 09:11:45;;;;;;;14.38;3.75;;;17.80;99.90;;;;;;5057981;28;20439;-92
2022/04/08 09:14:12;;;;;;;14.57;4.10;;;17.80;99.90;;;;;;5041387;28;20470;-92
2022/04/08 09:16:40;;;;;;;13.70;3.70;;;17.70;99.90;;;;;;5061142;28;20792;-90
2022/04/08 09:19:14;;;;;;;14.00;3.30;;;17.80;99.90;;;;;;5070941;28;20427;-91
2022/04/08 09:21:54;;;;;;;15.80;3.47;;;17.80;99.90;;;;;;5053546;28;20386;-88
2022/04/08 09:24:25;;;;;;;15.60;3.53;;;17.90;99.90;;;;;;5066380;28;21201;-91
2022/04/08 09:26:52;;;;;;;17.02;3.67;;;18.00;99.90;;;;;;5060693;28;20441;-88
2022/04/08 09:29:24;;;;;;;17.80;3.67;;;18.10;99.90;;;;;;5053970;28;20457;-92
2022/04/08 09:31:59;;;;;;;12.60;3.20;;;18.10;99.90;;;;;;5056920;28;20388;-90
2022/04/08 09:34:29;;;;;;;18.77;3.63;;;18.10;99.90;;;;;;5054243;28;20406;-87
2022/04/08 09:36:57;;;;;;;15.98;3.03;;;18.10;99.90;;;;;;5073460;28;20382;-91
2022/04/08 09:39:24;;;;;;;15.20;3.20;;;18.10;99.90;;;;;;5071820;28;20374;-89
2022/04/08 09:41:56;;;;;;;14.38;3.13;;;18.10;99.90;;;;;;5070785;28;20378;-89
2022/04/08 09:44:24;;;;;;;15.48;3.20;;;18.00;99.90;;;;;;5052631;28;20907;-89
2022/04/08 09:46:53;;;;;;;15.15;2.83;;;17.90;99.90;;;;;;5066871;28;20385;-91
2022/04/08 09:49:20;;;;;;;12.20;2.83;;;17.80;99.90;;;;;;5072706;28;20900;-93
2022/04/08 09:51:50;;;;;;;13.88;2.72;;;17.80;99.90;;;;;;5060523;28;20765;-92
2022/04/08 09:54:22;;;;;;;16.47;3.20;;;17.70;99.90;;;;;;5054716;28;20855;-92
2022/04/08 09:56:50;;;;;;;16.10;3.17;;;17.60;99.90;;;;;;5056313;28;20457;-92
2022/04/08 09:59:21;;;;;;;16.27;3.08;;;17.60;99.90;;;;;;5057181;28;20381;-92
2022/04/08 10:01:51;;;;;;;14.55;2.97;;;17.60;99.90;;;;;;5072590;28;20390;-93
2022/04/08 10:04:21;;;;;;;12.50;3.00;;;17.50;99.90;;;;;;5072210;28;20386;-92
2022/04/08 10:06:48;;;;;;;13.68;3.40;;;17.50;99.90;;;;;;5053439;28;20382;-93
2022/04/08 10:09:19;;;;;;;17.95;3.40;;;17.60;99.90;;;;;;5061111;28;20382;-90
2022/04/08 10:12:02;;;;;;;15.88;3.17;;;17.70;99.90;;;;;;5067320;28;20586;-88
2022/04/08 10:14:36;;;;;;;16.05;3.17;;;17.80;99.90;;;;;;5044376;28;20381;-89
2022/04/08 10:17:03;;;;;;;16.92;3.15;;;17.90;99.90;;;;;;5057544;28;20406;-91
2022/04/08 10:19:31;;;;;;;16.00;3.20;;;17.60;99.90;;;;;;5051527;28;20410;-90
2022/04/08 10:22:00;;;;;;;15.53;2.93;;;18.00;99.90;;;;;;5051729;28;20372;-90
2022/04/08 10:24:31;;;;;;;18.42;3.20;;;18.00;99.90;;;;;;5037869;28;20433;-90
2022/04/08 10:27:05;;;;;;;17.67;3.07;;;18.00;99.90;;;;;;5059973;28;20419;-87
2022/04/08 10:29:34;;;;;;;16.17;3.00;;;18.00;99.90;;;;;;5066792;28;20881;-90
2022/04/08 10:32:16;;;;;;;13.27;2.80;;;17.90;99.90;;;;;;5059430;28;20386;-90
2022/04/08 10:34:43;;;;;;;18.27;3.03;;;17.90;99.90;;;;;;5033427;28;20386;-88
2022/04/08 10:37:23;;;;;;;18.98;3.10;;;17.90;99.90;;;;;;5033747;28;20376;-90
2022/04/08 10:39:58;;;;;;;16.80;3.17;;;17.90;99.90;;;;;;5045042;28;20382;-91
2022/04/08 10:42:25;;;;;;;17.60;3.03;;;17.90;99.90;;;;;;5060708;28;20379;-88
2022/04/08 10:44:56;;;;;;;13.90;2.97;;;17.90;99.90;;;;;;5051924;28;20424;-83
2022/04/08 10:47:27;;;;;;;16.90;2.65;;;17.90;99.90;;;;;;5058238;28;20392;-90
2022/04/08 10:50:04;;;;;;;15.52;3.00;;;17.90;99.90;;;;;;5067558;28;20400;-84
2022/04/08 10:52:39;;;;;;;19.23;3.08;;;17.90;99.90;;;;;;5074219;28;20407;-86
2022/04/08 10:55:09;;;;;;;12.25;2.20;;;17.90;99.90;;;;;;5055937;28;20408;-83
2022/04/08 10:57:42;;;;;;;14.33;2.30;;;17.90;99.90;;;;;;5055544;28;20456;-86
2022/04/08 11:00:19;;;;;;;10.63;2.33;;;17.90;99.90;;;;;;5055186;28;20419;-88
2022/04/08 11:02:47;;;;;;;13.30;2.28;;;17.80;99.90;;;;;;5063267;28;20382;-89
2022/04/08 11:05:18;;;;;;;11.07;2.40;;;17.80;99.90;;;;;;5073994;28;20480;-85
2022/04/08 11:07:47;;;;;;;15.23;2.60;;;17.70;99.90;;;;;;5050477;28;20402;-94
2022/04/08 11:10:16;;;;;;;16.05;2.50;;;17.70;99.90;;;;;;5077304;28;20390;-86
2022/04/08 11:12:47;;;;;;;13.40;2.50;;;17.10;99.90;;;;;;5087206;28;20384;-85
2022/04/08 11:15:19;;;;;;;12.33;2.70;;;17.60;99.90;;;;;;5055671;28;20379;-90
2022/04/08 11:17:49;;;;;;;10.82;2.40;;;17.70;99.90;;;;;;5054028;28;20389;-92
2022/04/08 11:20:19;;;;;;;14.63;2.63;;;17.70;99.90;;;;;;5061908;28;20445;-93
2022/04/08 11:22:53;;;;;;;14.95;2.72;;;17.70;99.90;;;;;;5071866;28;20396;-92
2022/04/08 11:25:26;;;;;;;14.00;2.75;;;17.70;99.90;;;;;;5054797;28;20390;-88
2022/04/08 11:28:03;;;;;;;13.45;2.65;;;17.70;99.90;;;;;;5054363;28;20371;-86
2022/04/08 11:30:38;;;;;;;15.32;2.83;;;17.70;99.90;;;;;;5054541;28;20415;-84
2022/04/08 11:33:16;;;;;;;14.48;2.63;;;17.70;99.90;;;;;;5054822;28;20368;-93
2022/04/08 11:35:45;;;;;;;11.57;2.30;;;17.70;99.90;;;;;;5054123;28;20410;-83
2022/04/08 11:38:16;;;;;;;14.57;2.65;;;17.70;99.90;;;;;;5055000;28;20375;-87
2022/04/08 11:40:44;;;;;;;16.33;2.75;;;17.60;99.90;;;;;;5054231;28;20411;-91
2022/04/08 11:43:19;;;;;;;18.88;2.72;;;17.60;99.90;;;;;;5054515;28;20403;-90
2022/04/08 11:45:49;;;;;;;13.50;2.97;;;17.50;99.90;;;;;;5053853;28;20406;-84
2022/04/08 11:48:19;;;;;;;13.25;3.00;;;17.50;99.90;;;;;;5055130;28;20860;-94
2022/04/08 11:50:47;;;;;;;10.50;2.80;;;17.40;99.90;;;;;;5056064;28;20412;-86
2022/04/08 11:53:21;;;;;;;15.45;2.60;;;17.50;99.90;;;;;;5073977;28;20443;-85
2022/04/08 11:56:00;;;;;;;17.25;3.30;;;17.40;99.90;;;;;;5075265;28;20385;-84
2022/04/08 11:58:29;;;;;;;16.90;4.05;;;17.40;99.90;;;;;;5075128;28;20442;-83
2022/04/08 12:00:59;;;;;;;12.70;3.13;;;17.50;99.90;;;;;;5072066;28;20461;-87
2022/04/08 12:03:32;;;;;;;14.38;4.60;;;17.50;99.90;;;;;;5070852;28;20489;-88
2022/04/08 12:06:01;;;;;;;14.57;3.33;;;17.60;99.90;;;;;;5072593;28;20432;-91
2022/04/08 12:08:29;;;;;;;12.87;3.00;;;17.50;99.90;;;;;;5067792;28;20890;-89
2022/04/08 12:10:59;;;;;;;18.75;3.15;;;17.50;99.90;;;;;;5057844;28;20434;-94
2022/04/08 12:13:29;;;;;;;12.65;2.92;;;17.60;99.90;;;;;;5075857;28;20481;-91
2022/04/08 12:15:58;;;;;;;14.17;2.73;;;17.60;99.90;;;;;;5078409;28;20384;-93
2022/04/08 12:18:32;;;;;;;18.02;2.90;;;17.60;99.90;;;;;;5077436;28;20465;-91
2022/04/08 12:21:04;;;;;;;13.82;2.70;;;17.60;99.90;;;;;;5038650;28;20467;-90
2022/04/08 12:23:31;;;;;;;14.82;2.65;;;17.60;99.90;;;;;;5079978;28;20394;-80
2022/04/08 12:26:05;;;;;;;14.93;2.70;;;17.60;99.90;;;;;;5067559;28;20410;-90
2022/04/08 12:28:35;;;;;;;15.15;2.60;;;17.60;99.90;;;;;;5057141;28;20372;-83
2022/04/08 12:31:20;;;;;;;13.02;2.60;;;17.70;99.90;;;;;;5054328;28;20399;-83
2022/04/08 12:33:48;;;;;;;16.33;2.53;;;17.70;99.90;;;;;;5054328;28;20464;-85
2022/04/08 12:36:15;;;;;;;15.13;2.60;;;17.60;99.90;;;;;;5054372;28;20410;-89
2022/04/08 12:38:44;;;;;;;16.88;2.63;;;17.60;99.90;;;;;;5055289;28;20478;-92
2022/04/08 12:41:11;;;;;;;14.90;2.60;;;17.60;99.90;;;;;;5056055;28;20399;-93
2022/04/08 12:43:39;;;;;;;13.77;2.60;;;17.60;99.90;;;;;;5062262;28;20379;-81
2022/04/08 12:46:06;;;;;;;16.65;2.70;;;17.70;99.90;;;;;;5067755;28;20479;-91
2022/04/08 12:48:33;;;;;;;16.52;2.92;;;17.60;99.90;;;;;;5054015;28;20393;-92
2022/04/08 12:51:00;;;;;;;17.10;2.80;;;17.60;99.90;;;;;;5073643;28;20735;-91